sensor_id;sensor_type;location;lat;lon;timestamp;temperature;humidity
67748;HTU21D;54543;50.712;6.070;2023-03-01T00:01:20;-1.33;71.28
67748;HTU21D;54543;50.712;6.070;2023-03-01T00:03:46;-1.36;71.39
67748;HTU21D;54543;50.712;6.070;2023-03-01T00:06:12;-1.40;71.49
67748;HTU21D;54543;50.712;6.070;2023-03-01T00:08:37;-1.45;71.45
67748;HTU21D;54543;50.712;6.070;2023-03-01T00:11:09;-1.46;71.57
67748;HTU21D;54543;50.712;6.070;2023-03-01T00:13:35;-1.50;71.67
67748;HTU21D;54543;50.712;6.070;2023-03-01T00:16:03;-1.52;71.67
67748;HTU21D;54543;50.712;6.070;2023-03-01T00:18:29;-1.56;71.77
67748;HTU21D;54543;50.712;6.070;2023-03-01T00:20:56;-1.57;71.87
67748;HTU21D;54543;50.712;6.070;2023-03-01T00:23:22;-1.57;71.98
67748;HTU21D;54543;50.712;6.070;2023-03-01T00:25:48;-1.61;72.09
67748;HTU21D;54543;50.712;6.070;2023-03-01T00:28:14;-1.61;72.19
67748;HTU21D;54543;50.712;6.070;2023-03-01T00:30:40;-1.63;72.25
67748;HTU21D;54543;50.712;6.070;2023-03-01T00:33:05;-1.67;72.22
67748;HTU21D;54543;50.712;6.070;2023-03-01T00:35:32;-1.70;72.57
67748;HTU21D;54543;50.712;6.070;2023-03-01T00:37:58;-1.71;72.63
67748;HTU21D;54543;50.712;6.070;2023-03-01T00:40:25;-1.72;72.58
67748;HTU21D;54543;50.712;6.070;2023-03-01T00:42:50;-1.75;72.48
67748;HTU21D;54543;50.712;6.070;2023-03-01T00:45:16;-1.77;72.47
67748;HTU21D;54543;50.712;6.070;2023-03-01T00:47:42;-1.79;72.49
67748;HTU21D;54543;50.712;6.070;2023-03-01T00:50:08;-1.82;72.51
67748;HTU21D;54543;50.712;6.070;2023-03-01T00:52:34;-1.85;72.66
67748;HTU21D;54543;50.712;6.070;2023-03-01T00:54:59;-1.88;72.71
67748;HTU21D;54543;50.712;6.070;2023-03-01T00:57:25;-1.90;72.76
67748;HTU21D;54543;50.712;6.070;2023-03-01T00:59:50;-1.92;72.97
67748;HTU21D;54543;50.712;6.070;2023-03-01T01:02:19;-1.95;72.95
67748;HTU21D;54543;50.712;6.070;2023-03-01T01:04:45;-1.97;73.03
67748;HTU21D;54543;50.712;6.070;2023-03-01T01:07:10;-1.99;73.19
67748;HTU21D;54543;50.712;6.070;2023-03-01T01:09:36;-2.00;73.37
67748;HTU21D;54543;50.712;6.070;2023-03-01T01:12:02;-2.00;73.23
67748;HTU21D;54543;50.712;6.070;2023-03-01T01:14:28;-2.01;73.21
67748;HTU21D;54543;50.712;6.070;2023-03-01T01:16:54;-2.04;73.29
67748;HTU21D;54543;50.712;6.070;2023-03-01T01:19:20;-2.05;73.44
67748;HTU21D;54543;50.712;6.070;2023-03-01T01:21:46;-2.06;73.35
67748;HTU21D;54543;50.712;6.070;2023-03-01T01:24:13;-2.07;73.67
67748;HTU21D;54543;50.712;6.070;2023-03-01T01:26:39;-2.08;73.64
67748;HTU21D;54543;50.712;6.070;2023-03-01T01:29:06;-2.10;73.74
67748;HTU21D;54543;50.712;6.070;2023-03-01T01:31:32;-2.13;73.73
67748;HTU21D;54543;50.712;6.070;2023-03-01T01:34:01;-2.15;73.78
67748;HTU21D;54543;50.712;6.070;2023-03-01T01:36:27;-2.15;73.91
67748;HTU21D;54543;50.712;6.070;2023-03-01T01:38:53;-2.16;73.98
67748;HTU21D;54543;50.712;6.070;2023-03-01T01:41:19;-2.17;74.12
67748;HTU21D;54543;50.712;6.070;2023-03-01T01:44:23;-2.19;74.69
67748;HTU21D;54543;50.712;6.070;2023-03-01T01:49:36;-2.22;74.63
67748;HTU21D;54543;50.712;6.070;2023-03-01T01:52:05;-2.23;74.07
67748;HTU21D;54543;50.712;6.070;2023-03-01T01:57:15;-2.27;74.21
67748;HTU21D;54543;50.712;6.070;2023-03-01T01:59:45;-2.29;74.22
67748;HTU21D;54543;50.712;6.070;2023-03-01T02:02:12;-2.30;74.41
67748;HTU21D;54543;50.712;6.070;2023-03-01T02:04:39;-2.33;74.42
67748;HTU21D;54543;50.712;6.070;2023-03-01T02:07:15;-2.32;74.93
67748;HTU21D;54543;50.712;6.070;2023-03-01T02:09:47;-2.34;74.92
67748;HTU21D;54543;50.712;6.070;2023-03-01T02:12:16;-2.35;74.67
67748;HTU21D;54543;50.712;6.070;2023-03-01T02:14:43;-2.38;74.82
67748;HTU21D;54543;50.712;6.070;2023-03-01T02:17:10;-2.41;74.72
67748;HTU21D;54543;50.712;6.070;2023-03-01T02:22:33;-2.41;74.94
67748;HTU21D;54543;50.712;6.070;2023-03-01T02:25:26;-2.42;75.77
67748;HTU21D;54543;50.712;6.070;2023-03-01T02:30:29;-2.44;75.11
67748;HTU21D;54543;50.712;6.070;2023-03-01T02:32:57;-2.45;75.25
67748;HTU21D;54543;50.712;6.070;2023-03-01T02:35:32;-2.46;75.42
67748;HTU21D;54543;50.712;6.070;2023-03-01T02:37:58;-2.46;75.35
67748;HTU21D;54543;50.712;6.070;2023-03-01T02:40:28;-2.47;75.48
67748;HTU21D;54543;50.712;6.070;2023-03-01T02:42:57;-2.48;75.37
67748;HTU21D;54543;50.712;6.070;2023-03-01T02:45:23;-2.49;75.37
67748;HTU21D;54543;50.712;6.070;2023-03-01T02:47:50;-2.51;75.33
67748;HTU21D;54543;50.712;6.070;2023-03-01T02:50:25;-2.52;75.38
67748;HTU21D;54543;50.712;6.070;2023-03-01T02:55:25;-2.56;75.53
67748;HTU21D;54543;50.712;6.070;2023-03-01T02:57:51;-2.56;75.57
67748;HTU21D;54543;50.712;6.070;2023-03-01T03:00:20;-2.58;75.87
67748;HTU21D;54543;50.712;6.070;2023-03-01T03:02:51;-2.60;75.95
67748;HTU21D;54543;50.712;6.070;2023-03-01T03:05:22;-2.61;75.92
67748;HTU21D;54543;50.712;6.070;2023-03-01T03:07:49;-2.63;75.76
67748;HTU21D;54543;50.712;6.070;2023-03-01T03:10:23;-2.65;75.89
67748;HTU21D;54543;50.712;6.070;2023-03-01T03:12:54;-2.67;76.05
67748;HTU21D;54543;50.712;6.070;2023-03-01T03:15:21;-2.71;75.92
67748;HTU21D;54543;50.712;6.070;2023-03-01T03:17:47;-2.71;76.01
67748;HTU21D;54543;50.712;6.070;2023-03-01T03:20:14;-2.73;75.88
67748;HTU21D;54543;50.712;6.070;2023-03-01T03:22:45;-2.75;75.92
67748;HTU21D;54543;50.712;6.070;2023-03-01T03:25:12;-2.79;75.92
67748;HTU21D;54543;50.712;6.070;2023-03-01T03:27:38;-2.79;75.87
67748;HTU21D;54543;50.712;6.070;2023-03-01T03:30:06;-2.83;75.83
67748;HTU21D;54543;50.712;6.070;2023-03-01T03:32:37;-2.86;75.89
67748;HTU21D;54543;50.712;6.070;2023-03-01T03:35:07;-2.86;76.13
67748;HTU21D;54543;50.712;6.070;2023-03-01T03:37:38;-2.87;76.29
67748;HTU21D;54543;50.712;6.070;2023-03-01T03:40:23;-2.88;76.53
67748;HTU21D;54543;50.712;6.070;2023-03-01T03:42:48;-2.89;76.62
67748;HTU21D;54543;50.712;6.070;2023-03-01T03:45:15;-2.90;76.49
67748;HTU21D;54543;50.712;6.070;2023-03-01T03:47:41;-2.92;76.41
67748;HTU21D;54543;50.712;6.070;2023-03-01T03:50:08;-2.94;76.42
67748;HTU21D;54543;50.712;6.070;2023-03-01T03:52:34;-2.96;76.60
67748;HTU21D;54543;50.712;6.070;2023-03-01T03:54:59;-2.97;76.86
67748;HTU21D;54543;50.712;6.070;2023-03-01T03:57:24;-2.98;76.78
67748;HTU21D;54543;50.712;6.070;2023-03-01T03:59:50;-3.01;76.66
67748;HTU21D;54543;50.712;6.070;2023-03-01T04:02:15;-3.04;76.74
67748;HTU21D;54543;50.712;6.070;2023-03-01T04:04:48;-3.05;76.79
67748;HTU21D;54543;50.712;6.070;2023-03-01T04:07:18;-3.05;76.97
67748;HTU21D;54543;50.712;6.070;2023-03-01T04:09:43;-3.08;76.95
67748;HTU21D;54543;50.712;6.070;2023-03-01T04:12:10;-3.08;77.02
67748;HTU21D;54543;50.712;6.070;2023-03-01T04:14:36;-3.12;76.97
67748;HTU21D;54543;50.712;6.070;2023-03-01T04:17:01;-3.15;76.98
67748;HTU21D;54543;50.712;6.070;2023-03-01T04:19:31;-3.16;76.99
67748;HTU21D;54543;50.712;6.070;2023-03-01T04:22:02;-3.18;77.05
67748;HTU21D;54543;50.712;6.070;2023-03-01T04:24:33;-3.18;76.96
67748;HTU21D;54543;50.712;6.070;2023-03-01T04:26:58;-3.19;77.01
67748;HTU21D;54543;50.712;6.070;2023-03-01T04:29:24;-3.22;77.17
67748;HTU21D;54543;50.712;6.070;2023-03-01T04:31:49;-3.23;77.25
67748;HTU21D;54543;50.712;6.070;2023-03-01T04:34:15;-3.23;77.20
67748;HTU21D;54543;50.712;6.070;2023-03-01T04:36:41;-3.25;77.17
67748;HTU21D;54543;50.712;6.070;2023-03-01T04:39:06;-3.27;77.34
67748;HTU21D;54543;50.712;6.070;2023-03-01T04:41:38;-3.28;77.37
67748;HTU21D;54543;50.712;6.070;2023-03-01T04:44:05;-3.30;77.34
67748;HTU21D;54543;50.712;6.070;2023-03-01T04:46:30;-3.32;77.28
67748;HTU21D;54543;50.712;6.070;2023-03-01T04:48:56;-3.32;77.28
67748;HTU21D;54543;50.712;6.070;2023-03-01T04:51:21;-3.34;77.33
67748;HTU21D;54543;50.712;6.070;2023-03-01T04:53:47;-3.36;77.24
67748;HTU21D;54543;50.712;6.070;2023-03-01T04:56:13;-3.39;77.24
67748;HTU21D;54543;50.712;6.070;2023-03-01T04:58:39;-3.40;77.28
67748;HTU21D;54543;50.712;6.070;2023-03-01T05:01:12;-3.43;77.45
67748;HTU21D;54543;50.712;6.070;2023-03-01T05:03:43;-3.46;77.36
67748;HTU21D;54543;50.712;6.070;2023-03-01T05:06:09;-3.47;77.60
67748;HTU21D;54543;50.712;6.070;2023-03-01T05:08:37;-3.50;77.55
67748;HTU21D;54543;50.712;6.070;2023-03-01T05:11:03;-3.52;77.89
67748;HTU21D;54543;50.712;6.070;2023-03-01T05:13:28;-3.53;77.96
67748;HTU21D;54543;50.712;6.070;2023-03-01T05:16:01;-3.54;77.93
67748;HTU21D;54543;50.712;6.070;2023-03-01T05:18:28;-3.55;77.87
67748;HTU21D;54543;50.712;6.070;2023-03-01T05:20:54;-3.55;77.92
67748;HTU21D;54543;50.712;6.070;2023-03-01T05:23:22;-3.58;78.25
67748;HTU21D;54543;50.712;6.070;2023-03-01T05:25:48;-3.58;78.21
67748;HTU21D;54543;50.712;6.070;2023-03-01T05:28:15;-3.61;78.14
67748;HTU21D;54543;50.712;6.070;2023-03-01T05:30:40;-3.62;78.31
67748;HTU21D;54543;50.712;6.070;2023-03-01T05:33:07;-3.64;78.28
67748;HTU21D;54543;50.712;6.070;2023-03-01T05:35:41;-3.66;78.43
67748;HTU21D;54543;50.712;6.070;2023-03-01T05:38:08;-3.69;78.47
67748;HTU21D;54543;50.712;6.070;2023-03-01T05:40:34;-3.70;78.59
67748;HTU21D;54543;50.712;6.070;2023-03-01T05:43:00;-3.72;78.64
67748;HTU21D;54543;50.712;6.070;2023-03-01T05:45:27;-3.75;78.67
67748;HTU21D;54543;50.712;6.070;2023-03-01T05:47:53;-3.77;78.73
67748;HTU21D;54543;50.712;6.070;2023-03-01T05:50:25;-3.78;78.79
67748;HTU21D;54543;50.712;6.070;2023-03-01T05:52:56;-3.80;78.82
67748;HTU21D;54543;50.712;6.070;2023-03-01T05:55:22;-3.81;78.89
67748;HTU21D;54543;50.712;6.070;2023-03-01T05:57:48;-3.82;78.87
67748;HTU21D;54543;50.712;6.070;2023-03-01T06:00:17;-3.84;78.95
67748;HTU21D;54543;50.712;6.070;2023-03-01T06:02:42;-3.85;78.92
67748;HTU21D;54543;50.712;6.070;2023-03-01T06:05:10;-3.87;78.99
67748;HTU21D;54543;50.712;6.070;2023-03-01T06:07:36;-3.87;79.13
67748;HTU21D;54543;50.712;6.070;2023-03-01T06:10:03;-3.90;79.07
67748;HTU21D;54543;50.712;6.070;2023-03-01T06:12:33;-3.91;78.95
67748;HTU21D;54543;50.712;6.070;2023-03-01T06:15:00;-3.93;78.81
67748;HTU21D;54543;50.712;6.070;2023-03-01T06:17:25;-3.95;78.88
67748;HTU21D;54543;50.712;6.070;2023-03-01T06:19:51;-3.96;79.01
67748;HTU21D;54543;50.712;6.070;2023-03-01T06:22:17;-3.99;79.38
67748;HTU21D;54543;50.712;6.070;2023-03-01T06:24:42;-3.97;79.42
67748;HTU21D;54543;50.712;6.070;2023-03-01T06:27:08;-3.99;79.26
67748;HTU21D;54543;50.712;6.070;2023-03-01T06:29:33;-4.01;79.29
67748;HTU21D;54543;50.712;6.070;2023-03-01T06:31:59;-4.02;79.20
67748;HTU21D;54543;50.712;6.070;2023-03-01T06:34:24;-4.02;79.47
67748;HTU21D;54543;50.712;6.070;2023-03-01T06:36:50;-3.99;79.40
67748;HTU21D;54543;50.712;6.070;2023-03-01T06:39:16;-4.01;79.50
67748;HTU21D;54543;50.712;6.070;2023-03-01T06:41:43;-3.99;79.40
67748;HTU21D;54543;50.712;6.070;2023-03-01T06:44:09;-3.97;79.42
67748;HTU21D;54543;50.712;6.070;2023-03-01T06:46:34;-3.96;79.74
67748;HTU21D;54543;50.712;6.070;2023-03-01T06:49:00;-3.94;79.98
67748;HTU21D;54543;50.712;6.070;2023-03-01T06:51:25;-3.89;80.36
67748;HTU21D;54543;50.712;6.070;2023-03-01T06:53:51;-3.84;80.28
67748;HTU21D;54543;50.712;6.070;2023-03-01T06:56:17;-3.79;80.25
67748;HTU21D;54543;50.712;6.070;2023-03-01T06:58:42;-3.74;79.99
67748;HTU21D;54543;50.712;6.070;2023-03-01T07:01:09;-3.66;79.83
67748;HTU21D;54543;50.712;6.070;2023-03-01T07:03:34;-3.60;79.59
67748;HTU21D;54543;50.712;6.070;2023-03-01T07:06:00;-3.51;79.81
67748;HTU21D;54543;50.712;6.070;2023-03-01T07:08:26;-3.41;79.60
67748;HTU21D;54543;50.712;6.070;2023-03-01T07:10:58;-3.33;79.49
67748;HTU21D;54543;50.712;6.070;2023-03-01T07:13:24;-3.25;79.39
67748;HTU21D;54543;50.712;6.070;2023-03-01T07:15:50;-3.17;79.28
67748;HTU21D;54543;50.712;6.070;2023-03-01T07:18:15;-3.11;78.98
67748;HTU21D;54543;50.712;6.070;2023-03-01T07:20:41;-3.04;79.14
67748;HTU21D;54543;50.712;6.070;2023-03-01T07:23:06;-2.96;79.08
67748;HTU21D;54543;50.712;6.070;2023-03-01T07:25:32;-2.88;78.85
67748;HTU21D;54543;50.712;6.070;2023-03-01T07:27:58;-2.80;78.80
67748;HTU21D;54543;50.712;6.070;2023-03-01T07:30:24;-2.72;78.69
67748;HTU21D;54543;50.712;6.070;2023-03-01T07:32:56;-2.61;78.59
67748;HTU21D;54543;50.712;6.070;2023-03-01T07:35:22;-2.52;78.69
67748;HTU21D;54543;50.712;6.070;2023-03-01T07:37:48;-2.42;78.23
67748;HTU21D;54543;50.712;6.070;2023-03-01T07:40:14;-2.32;77.89
67748;HTU21D;54543;50.712;6.070;2023-03-01T07:42:39;-2.20;77.58
67748;HTU21D;54543;50.712;6.070;2023-03-01T07:45:05;-2.10;77.44
67748;HTU21D;54543;50.712;6.070;2023-03-01T07:47:31;-2.02;77.30
67748;HTU21D;54543;50.712;6.070;2023-03-01T07:49:57;-1.91;77.14
67748;HTU21D;54543;50.712;6.070;2023-03-01T07:52:23;-1.80;77.15
67748;HTU21D;54543;50.712;6.070;2023-03-01T07:54:48;-1.69;76.73
67748;HTU21D;54543;50.712;6.070;2023-03-01T07:57:14;-1.59;76.27
67748;HTU21D;54543;50.712;6.070;2023-03-01T07:59:40;-1.48;76.19
67748;HTU21D;54543;50.712;6.070;2023-03-01T08:02:07;-1.38;76.08
67748;HTU21D;54543;50.712;6.070;2023-03-01T08:04:33;-1.25;75.46
67748;HTU21D;54543;50.712;6.070;2023-03-01T08:06:58;-1.15;75.63
67748;HTU21D;54543;50.712;6.070;2023-03-01T08:09:24;-1.03;76.02
67748;HTU21D;54543;50.712;6.070;2023-03-01T08:11:50;-0.93;75.14
67748;HTU21D;54543;50.712;6.070;2023-03-01T08:14:15;-0.84;74.76
67748;HTU21D;54543;50.712;6.070;2023-03-01T08:16:41;-0.73;74.56
67748;HTU21D;54543;50.712;6.070;2023-03-01T08:19:09;-0.64;74.32
67748;HTU21D;54543;50.712;6.070;2023-03-01T08:21:35;-0.54;73.97
67748;HTU21D;54543;50.712;6.070;2023-03-01T08:24:02;-0.44;74.25
67748;HTU21D;54543;50.712;6.070;2023-03-01T08:26:29;-0.35;73.81
67748;HTU21D;54543;50.712;6.070;2023-03-01T08:28:54;-0.26;73.36
67748;HTU21D;54543;50.712;6.070;2023-03-01T08:31:29;-0.16;73.39
67748;HTU21D;54543;50.712;6.070;2023-03-01T08:33:57;-0.05;72.81
67748;HTU21D;54543;50.712;6.070;2023-03-01T08:36:28;0.03;72.71
67748;HTU21D;54543;50.712;6.070;2023-03-01T08:38:54;0.13;72.83
67748;HTU21D;54543;50.712;6.070;2023-03-01T08:41:20;0.22;72.60
67748;HTU21D;54543;50.712;6.070;2023-03-01T08:43:45;0.35;72.16
67748;HTU21D;54543;50.712;6.070;2023-03-01T08:46:11;0.48;71.92
67748;HTU21D;54543;50.712;6.070;2023-03-01T08:48:37;0.54;70.88
67748;HTU21D;54543;50.712;6.070;2023-03-01T08:51:12;0.62;71.10
67748;HTU21D;54543;50.712;6.070;2023-03-01T08:53:39;0.67;70.43
67748;HTU21D;54543;50.712;6.070;2023-03-01T08:56:04;0.76;70.73
67748;HTU21D;54543;50.712;6.070;2023-03-01T08:58:30;0.80;70.55
67748;HTU21D;54543;50.712;6.070;2023-03-01T09:00:56;0.89;70.43
67748;HTU21D;54543;50.712;6.070;2023-03-01T09:03:23;1.03;70.81
67748;HTU21D;54543;50.712;6.070;2023-03-01T09:05:49;1.16;70.45
67748;HTU21D;54543;50.712;6.070;2023-03-01T09:08:16;1.22;69.81
67748;HTU21D;54543;50.712;6.070;2023-03-01T09:10:42;1.29;69.37
67748;HTU21D;54543;50.712;6.070;2023-03-01T09:13:08;1.40;69.75
67748;HTU21D;54543;50.712;6.070;2023-03-01T09:15:33;1.51;69.33
67748;HTU21D;54543;50.712;6.070;2023-03-01T09:17:59;1.56;69.28
67748;HTU21D;54543;50.712;6.070;2023-03-01T09:20:25;1.62;69.33
67748;HTU21D;54543;50.712;6.070;2023-03-01T09:22:50;1.61;69.20
67748;HTU21D;54543;50.712;6.070;2023-03-01T09:25:16;1.58;67.70
67748;HTU21D;54543;50.712;6.070;2023-03-01T09:27:41;1.54;66.80
67748;HTU21D;54543;50.712;6.070;2023-03-01T09:30:07;1.58;67.45
67748;HTU21D;54543;50.712;6.070;2023-03-01T09:32:33;1.64;68.36
67748;HTU21D;54543;50.712;6.070;2023-03-01T09:34:59;1.73;68.54
67748;HTU21D;54543;50.712;6.070;2023-03-01T09:37:31;1.86;68.79
67748;HTU21D;54543;50.712;6.070;2023-03-01T09:39:57;1.97;67.48
67748;HTU21D;54543;50.712;6.070;2023-03-01T09:42:23;2.07;67.99
67748;HTU21D;54543;50.712;6.070;2023-03-01T09:45:00;2.20;67.20
67748;HTU21D;54543;50.712;6.070;2023-03-01T09:47:29;2.34;68.17
67748;HTU21D;54543;50.712;6.070;2023-03-01T09:52:46;2.53;65.48
67748;HTU21D;54543;50.712;6.070;2023-03-01T10:00:39;2.74;65.93
67748;HTU21D;54543;50.712;6.070;2023-03-01T10:10:57;2.95;63.48
67748;HTU21D;54543;50.712;6.070;2023-03-01T10:13:31;2.93;64.73
67748;HTU21D;54543;50.712;6.070;2023-03-01T10:16:13;2.97;65.21
67748;HTU21D;54543;50.712;6.070;2023-03-01T10:18:41;3.04;66.07
67748;HTU21D;54543;50.712;6.070;2023-03-01T10:21:18;3.16;62.56
67748;HTU21D;54543;50.712;6.070;2023-03-01T10:23:44;3.25;64.34
67748;HTU21D;54543;50.712;6.070;2023-03-01T10:31:39;3.38;64.34
67748;HTU21D;54543;50.712;6.070;2023-03-01T10:34:17;3.45;62.84
67748;HTU21D;54543;50.712;6.070;2023-03-01T10:36:45;3.56;63.24
67748;HTU21D;54543;50.712;6.070;2023-03-01T10:39:18;3.63;62.28
67748;HTU21D;54543;50.712;6.070;2023-03-01T10:41:58;3.69;61.69
67748;HTU21D;54543;50.712;6.070;2023-03-01T10:44:44;3.71;62.33
67748;HTU21D;54543;50.712;6.070;2023-03-01T10:50:00;3.67;62.75
67748;HTU21D;54543;50.712;6.070;2023-03-01T10:52:35;3.65;63.08
67748;HTU21D;54543;50.712;6.070;2023-03-01T10:58:07;3.78;62.81
67748;HTU21D;54543;50.712;6.070;2023-03-01T11:00:54;3.92;62.31
67748;HTU21D;54543;50.712;6.070;2023-03-01T11:03:24;3.97;57.14
67748;HTU21D;54543;50.712;6.070;2023-03-01T11:05:59;3.97;61.71
67748;HTU21D;54543;50.712;6.070;2023-03-01T11:11:30;3.98;60.70
67748;HTU21D;54543;50.712;6.070;2023-03-01T11:14:22;4.06;62.37
67748;HTU21D;54543;50.712;6.070;2023-03-01T11:16:48;4.19;60.83
67748;HTU21D;54543;50.712;6.070;2023-03-01T11:19:23;4.21;58.53
67748;HTU21D;54543;50.712;6.070;2023-03-01T11:22:05;4.26;59.98
67748;HTU21D;54543;50.712;6.070;2023-03-01T11:24:44;4.32;59.57
67748;HTU21D;54543;50.712;6.070;2023-03-01T11:27:21;4.41;61.07
67748;HTU21D;54543;50.712;6.070;2023-03-01T11:32:25;4.60;59.70
67748;HTU21D;54543;50.712;6.070;2023-03-01T11:34:57;4.66;60.34
67748;HTU21D;54543;50.712;6.070;2023-03-01T11:40:43;4.90;58.99
67748;HTU21D;54543;50.712;6.070;2023-03-01T12:02:15;5.36;57.76
67748;HTU21D;54543;50.712;6.070;2023-03-01T12:10:22;5.50;55.09
67748;HTU21D;54543;50.712;6.070;2023-03-01T12:18:54;5.81;53.30
67748;HTU21D;54543;50.712;6.070;2023-03-01T12:32:44;6.19;54.72
67748;HTU21D;54543;50.712;6.070;2023-03-01T12:35:23;6.30;53.75
67748;HTU21D;54543;50.712;6.070;2023-03-01T12:41:27;6.43;50.99
67748;HTU21D;54543;50.712;6.070;2023-03-01T12:46:46;6.50;53.67
67748;HTU21D;54543;50.712;6.070;2023-03-01T12:49:40;6.50;52.55
67748;HTU21D;54543;50.712;6.070;2023-03-01T12:52:35;6.54;53.07
67748;HTU21D;54543;50.712;6.070;2023-03-01T12:55:08;6.51;53.52
67748;HTU21D;54543;50.712;6.070;2023-03-01T12:57:45;6.45;54.20
67748;HTU21D;54543;50.712;6.070;2023-03-01T13:00:35;6.43;52.01
67748;HTU21D;54543;50.712;6.070;2023-03-01T13:09:05;6.61;54.17
67748;HTU21D;54543;50.712;6.070;2023-03-01T13:11:34;6.65;55.94
67748;HTU21D;54543;50.712;6.070;2023-03-01T13:16:49;6.76;53.08
67748;HTU21D;54543;50.712;6.070;2023-03-01T13:19:17;6.81;56.76
67748;HTU21D;54543;50.712;6.070;2023-03-01T13:21:44;6.85;56.74
67748;HTU21D;54543;50.712;6.070;2023-03-01T13:24:43;6.94;53.64
67748;HTU21D;54543;50.712;6.070;2023-03-01T13:29:57;6.91;50.59
67748;HTU21D;54543;50.712;6.070;2023-03-01T13:32:32;6.91;55.05
67748;HTU21D;54543;50.712;6.070;2023-03-01T13:35:01;6.95;55.85
67748;HTU21D;54543;50.712;6.070;2023-03-01T13:37:34;7.01;54.88
67748;HTU21D;54543;50.712;6.070;2023-03-01T13:42:58;7.07;56.00
67748;HTU21D;54543;50.712;6.070;2023-03-01T13:45:39;7.12;54.80
67748;HTU21D;54543;50.712;6.070;2023-03-01T13:48:18;7.15;49.31
67748;HTU21D;54543;50.712;6.070;2023-03-01T13:51:13;7.16;52.72
67748;HTU21D;54543;50.712;6.070;2023-03-01T13:53:44;7.16;55.21
67748;HTU21D;54543;50.712;6.070;2023-03-01T13:56:14;7.15;55.37
67748;HTU21D;54543;50.712;6.070;2023-03-01T13:58:51;7.12;54.70
67748;HTU21D;54543;50.712;6.070;2023-03-01T14:01:35;7.15;50.93
67748;HTU21D;54543;50.712;6.070;2023-03-01T14:06:45;7.20;55.89
67748;HTU21D;54543;50.712;6.070;2023-03-01T14:09:24;7.24;51.30
67748;HTU21D;54543;50.712;6.070;2023-03-01T14:19:55;7.13;52.62
67748;HTU21D;54543;50.712;6.070;2023-03-01T14:22:29;7.15;53.09
67748;HTU21D;54543;50.712;6.070;2023-03-01T14:25:16;7.14;54.07
67748;HTU21D;54543;50.712;6.070;2023-03-01T14:27:42;7.14;55.32
67748;HTU21D;54543;50.712;6.070;2023-03-01T14:30:15;7.22;54.24
67748;HTU21D;54543;50.712;6.070;2023-03-01T14:32:43;7.27;54.93
67748;HTU21D;54543;50.712;6.070;2023-03-01T14:35:27;7.29;53.07
67748;HTU21D;54543;50.712;6.070;2023-03-01T14:37:53;7.31;55.10
67748;HTU21D;54543;50.712;6.070;2023-03-01T14:40:26;7.33;54.22
67748;HTU21D;54543;50.712;6.070;2023-03-01T14:42:53;7.39;54.78
67748;HTU21D;54543;50.712;6.070;2023-03-01T14:45:19;7.44;55.37
67748;HTU21D;54543;50.712;6.070;2023-03-01T14:47:45;7.46;55.54
67748;HTU21D;54543;50.712;6.070;2023-03-01T14:50:31;7.39;49.97
67748;HTU21D;54543;50.712;6.070;2023-03-01T14:53:01;7.32;54.67
67748;HTU21D;54543;50.712;6.070;2023-03-01T14:57:52;7.29;50.91
67748;HTU21D;54543;50.712;6.070;2023-03-01T15:00:20;7.29;55.37
67748;HTU21D;54543;50.712;6.070;2023-03-01T15:02:48;7.34;54.87
67748;HTU21D;54543;50.712;6.070;2023-03-01T15:05:15;7.39;54.48
67748;HTU21D;54543;50.712;6.070;2023-03-01T15:07:43;7.43;54.97
67748;HTU21D;54543;50.712;6.070;2023-03-01T15:10:26;7.53;53.35
67748;HTU21D;54543;50.712;6.070;2023-03-01T15:12:52;7.70;56.95
67748;HTU21D;54543;50.712;6.070;2023-03-01T15:18:01;8.04;58.15
67748;HTU21D;54543;50.712;6.070;2023-03-01T15:20:28;8.20;58.35
67748;HTU21D;54543;50.712;6.070;2023-03-01T15:22:56;8.41;59.71
67748;HTU21D;54543;50.712;6.070;2023-03-01T15:25:25;8.61;60.14
67748;HTU21D;54543;50.712;6.070;2023-03-01T15:27:53;8.83;60.20
67748;HTU21D;54543;50.712;6.070;2023-03-01T15:30:26;8.98;56.59
67748;HTU21D;54543;50.712;6.070;2023-03-01T15:33:18;9.11;52.56
67748;HTU21D;54543;50.712;6.070;2023-03-01T15:35:47;9.24;60.04
67748;HTU21D;54543;50.712;6.070;2023-03-01T15:38:49;9.32;49.21
67748;HTU21D;54543;50.712;6.070;2023-03-01T15:43:52;9.47;60.69
67748;HTU21D;54543;50.712;6.070;2023-03-01T15:48:58;9.67;60.39
67748;HTU21D;54543;50.712;6.070;2023-03-01T15:51:42;9.66;53.41
67748;HTU21D;54543;50.712;6.070;2023-03-01T15:54:17;9.64;55.81
67748;HTU21D;54543;50.712;6.070;2023-03-01T15:56:43;9.55;60.08
67748;HTU21D;54543;50.712;6.070;2023-03-01T15:59:11;9.45;59.35
67748;HTU21D;54543;50.712;6.070;2023-03-01T16:01:40;9.31;59.29
67748;HTU21D;54543;50.712;6.070;2023-03-01T16:04:06;9.16;58.66
67748;HTU21D;54543;50.712;6.070;2023-03-01T16:06:32;8.93;57.66
67748;HTU21D;54543;50.712;6.070;2023-03-01T16:08:57;8.76;57.75
67748;HTU21D;54543;50.712;6.070;2023-03-01T16:11:22;8.57;57.83
67748;HTU21D;54543;50.712;6.070;2023-03-01T16:13:48;8.39;57.29
67748;HTU21D;54543;50.712;6.070;2023-03-01T16:16:15;8.22;56.93
67748;HTU21D;54543;50.712;6.070;2023-03-01T16:18:46;8.07;56.53
67748;HTU21D;54543;50.712;6.070;2023-03-01T16:21:18;7.90;54.34
67748;HTU21D;54543;50.712;6.070;2023-03-01T16:23:45;7.70;56.08
67748;HTU21D;54543;50.712;6.070;2023-03-01T16:26:11;7.53;56.58
67748;HTU21D;54543;50.712;6.070;2023-03-01T16:28:39;7.37;55.92
67748;HTU21D;54543;50.712;6.070;2023-03-01T16:31:05;7.17;56.17
67748;HTU21D;54543;50.712;6.070;2023-03-01T16:33:31;7.03;56.55
67748;HTU21D;54543;50.712;6.070;2023-03-01T16:35:56;6.93;56.46
67748;HTU21D;54543;50.712;6.070;2023-03-01T16:38:23;6.83;56.61
67748;HTU21D;54543;50.712;6.070;2023-03-01T16:40:50;6.74;56.40
67748;HTU21D;54543;50.712;6.070;2023-03-01T16:43:16;6.64;56.50
67748;HTU21D;54543;50.712;6.070;2023-03-01T16:45:41;6.52;56.27
67748;HTU21D;54543;50.712;6.070;2023-03-01T16:48:10;6.38;56.13
67748;HTU21D;54543;50.712;6.070;2023-03-01T16:50:35;6.26;56.56
67748;HTU21D;54543;50.712;6.070;2023-03-01T16:53:02;6.14;56.65
67748;HTU21D;54543;50.712;6.070;2023-03-01T16:55:28;6.01;56.88
67748;HTU21D;54543;50.712;6.070;2023-03-01T16:57:53;5.90;56.96
67748;HTU21D;54543;50.712;6.070;2023-03-01T17:00:19;5.79;56.94
67748;HTU21D;54543;50.712;6.070;2023-03-01T17:02:45;5.68;57.11
67748;HTU21D;54543;50.712;6.070;2023-03-01T17:05:10;5.57;57.16
67748;HTU21D;54543;50.712;6.070;2023-03-01T17:07:37;5.48;57.37
67748;HTU21D;54543;50.712;6.070;2023-03-01T17:10:04;5.34;57.39
67748;HTU21D;54543;50.712;6.070;2023-03-01T17:12:30;5.19;57.49
67748;HTU21D;54543;50.712;6.070;2023-03-01T17:14:57;5.06;57.74
67748;HTU21D;54543;50.712;6.070;2023-03-01T17:17:23;4.93;57.84
67748;HTU21D;54543;50.712;6.070;2023-03-01T17:19:48;4.82;57.98
67748;HTU21D;54543;50.712;6.070;2023-03-01T17:22:14;4.69;58.34
67748;HTU21D;54543;50.712;6.070;2023-03-01T17:24:40;4.58;58.54
67748;HTU21D;54543;50.712;6.070;2023-03-01T17:27:07;4.47;58.83
67748;HTU21D;54543;50.712;6.070;2023-03-01T17:29:33;4.35;59.07
67748;HTU21D;54543;50.712;6.070;2023-03-01T17:31:59;4.27;59.04
67748;HTU21D;54543;50.712;6.070;2023-03-01T17:34:24;4.17;59.33
67748;HTU21D;54543;50.712;6.070;2023-03-01T17:36:51;4.07;59.35
67748;HTU21D;54543;50.712;6.070;2023-03-01T17:39:18;3.98;59.56
67748;HTU21D;54543;50.712;6.070;2023-03-01T17:41:53;3.89;59.73
67748;HTU21D;54543;50.712;6.070;2023-03-01T17:44:19;3.80;59.75
67748;HTU21D;54543;50.712;6.070;2023-03-01T17:46:45;3.73;59.91